Time;durP1;ratioP1;P1;durP2;ratioP2;P2;SDS_P1;SDS_P2;PMS_P1;PMS_P2;Temp;Humidity;BMP_temperature;BMP_pressure;BME280_temperature;BME280_humidity;BME280_pressure;Samples;Min_cycle;Max_cycle;Signal;HPM_P1;HPM_P2
2022/09/02 00:01:23;;;;;;;3.53;3.22;;;;;;;19.05;57.34;100463.13;5049454;28;20190;-71
2022/09/02 00:03:54;;;;;;;4.32;3.38;;;;;;;19.06;57.21;100467.59;5070018;28;20249;-72
2022/09/02 00:06:21;;;;;;;4.05;3.15;;;;;;;19.04;57.29;100465.00;5082246;28;20265;-72
2022/09/02 00:08:48;;;;;;;3.53;3.22;;;;;;;18.91;57.69;100465.09;5067972;28;20261;-71
2022/09/02 00:11:17;;;;;;;4.30;3.90;;;;;;;18.84;58.21;100460.28;5071113;28;20680;-71
2022/09/02 00:13:45;;;;;;;3.50;3.20;;;;;;;18.81;58.41;100457.75;5070228;28;20343;-71
2022/09/02 00:16:12;;;;;;;5.93;3.70;;;;;;;18.75;58.58;100459.97;5061049;28;20236;-72
2022/09/02 00:18:40;;;;;;;4.15;3.60;;;;;;;18.69;59.13;100454.13;5058638;28;20205;-73
2022/09/02 00:21:12;;;;;;;3.60;3.30;;;;;;;18.68;58.96;100449.66;5061667;28;20193;-73
2022/09/02 00:23:39;;;;;;;5.50;5.00;;;;;;;18.67;58.86;100448.75;5054411;28;20225;-73
2022/09/02 00:26:06;;;;;;;5.97;3.58;;;;;;;18.65;58.96;100445.28;5051918;28;20288;-72
2022/09/02 00:28:33;;;;;;;6.68;3.35;;;;;;;18.58;59.05;100448.63;5066414;28;20232;-72
2022/09/02 00:30:59;;;;;;;3.63;2.90;;;;;;;18.60;59.04;100442.06;5062857;28;20307;-73
2022/09/02 00:33:26;;;;;;;2.80;2.60;;;;;;;18.66;58.81;100443.44;5068157;28;20226;-71
2022/09/02 00:35:53;;;;;;;9.32;6.68;;;;;;;18.61;59.42;100448.38;5058478;28;20199;-72
2022/09/02 00:38:21;;;;;;;8.95;8.00;;;;;;;18.52;59.55;100445.41;5055338;28;20207;-71
2022/09/02 00:40:49;;;;;;;13.05;11.43;;;;;;;18.54;59.90;100448.88;5044634;28;20202;-72
2022/09/02 00:43:24;;;;;;;10.32;9.32;;;;;;;18.50;60.43;100452.81;5053809;28;20326;-72
2022/09/02 00:45:52;;;;;;;6.10;4.47;;;;;;;18.52;60.02;100441.81;5067373;28;20192;-71
2022/09/02 00:48:18;;;;;;;4.15;3.15;;;;;;;18.59;59.81;100442.16;5047845;28;20890;-71
2022/09/02 00:50:45;;;;;;;4.43;2.95;;;;;;;18.56;60.12;100443.28;5056406;28;20228;-70
2022/09/02 00:53:14;;;;;;;3.65;3.35;;;;;;;18.53;60.58;100452.56;5064508;28;20299;-72
2022/09/02 00:55:46;;;;;;;7.20;2.70;;;;;;;18.55;60.76;100450.59;5064249;28;20200;-73
2022/09/02 00:58:17;;;;;;;3.67;3.20;;;;;;;18.52;61.59;100453.56;5054294;28;20221;-73
2022/09/02 01:00:45;;;;;;;4.15;2.75;;;;;;;18.51;61.60;100449.09;5060507;28;20232;-72
2022/09/02 01:03:15;;;;;;;6.03;3.17;;;;;;;18.35;64.36;100443.09;5059791;28;20296;-73
2022/09/02 01:05:44;;;;;;;4.22;3.83;;;;;;;18.39;62.30;100446.47;5073195;28;20188;-70
2022/09/02 01:08:13;;;;;;;4.13;3.10;;;;;;;18.48;61.78;100438.44;5056727;28;20268;-71
2022/09/02 01:10:39;;;;;;;3.25;2.75;;;;;;;18.45;61.94;100444.16;5057844;28;20193;-71
2022/09/02 01:13:09;;;;;;;4.80;3.20;;;;;;;18.45;62.58;100445.97;5058258;28;20222;-72
2022/09/02 01:15:38;;;;;;;4.85;3.33;;;;;;;18.32;63.87;100438.75;5063953;28;20197;-72
2022/09/02 01:18:07;;;;;;;3.60;3.30;;;;;;;18.15;64.52;100438.31;5052176;28;20202;-72
2022/09/02 01:20:34;;;;;;;5.72;3.20;;;;;;;18.18;63.84;100435.34;5051670;28;20269;-72
2022/09/02 01:23:02;;;;;;;3.95;2.90;;;;;;;18.13;63.58;100428.41;5062627;28;20220;-73
2022/09/02 01:25:31;;;;;;;4.88;3.47;;;;;;;18.09;64.32;100429.63;5057500;28;20742;-72
2022/09/02 01:27:59;;;;;;;3.70;3.28;;;;;;;18.00;64.76;100438.50;5061188;28;20209;-72
2022/09/02 01:30:27;;;;;;;5.13;2.67;;;;;;;17.99;64.55;100435.88;5057463;28;20201;-71
2022/09/02 01:32:54;;;;;;;3.25;2.95;;;;;;;18.02;64.70;100444.72;5068211;28;20224;-72
2022/09/02 01:35:20;;;;;;;6.45;3.10;;;;;;;17.96;66.37;100437.00;5069691;28;20205;-71
2022/09/02 01:37:47;;;;;;;3.83;3.25;;;;;;;17.73;66.26;100438.69;5067171;28;20207;-70
2022/09/02 01:40:18;;;;;;;4.20;3.80;;;;;;;17.61;66.42;100437.72;5055407;28;20201;-71
2022/09/02 01:42:46;;;;;;;5.32;3.05;;;;;;;17.67;65.68;100430.97;5047804;28;20222;-71
2022/09/02 01:45:14;;;;;;;5.20;3.65;;;;;;;17.71;65.27;100430.63;5070975;28;20206;-71
2022/09/02 01:47:40;;;;;;;4.22;2.50;;;;;;;17.67;66.18;100434.56;5063529;28;20197;-73
2022/09/02 01:50:08;;;;;;;6.88;3.63;;;;;;;17.58;65.99;100428.94;5073863;28;20260;-71
2022/09/02 01:52:35;;;;;;;3.38;3.08;;;;;;;17.60;65.54;100435.16;5073287;28;20221;-72
2022/09/02 01:55:02;;;;;;;6.03;3.00;;;;;;;17.59;66.22;100436.13;5065449;28;20201;-71
2022/09/02 01:57:30;;;;;;;3.47;3.13;;;;;;;17.57;65.46;100436.25;5064930;28;20244;-73
2022/09/02 01:59:56;;;;;;;2.92;2.72;;;;;;;17.58;65.85;100431.66;5065615;28;20334;-70
2022/09/02 02:02:23;;;;;;;3.72;2.97;;;;;;;17.73;62.87;100435.97;5061295;28;20217;-71
2022/09/02 02:04:50;;;;;;;3.60;3.00;;;;;;;17.83;62.34;100431.59;5064700;28;20674;-72
2022/09/02 02:07:21;;;;;;;7.05;6.03;;;;;;;17.92;62.60;100440.94;5057128;28;20206;-72
2022/09/02 02:09:48;;;;;;;4.95;3.35;;;;;;;17.86;62.93;100431.38;5061517;28;20250;-71
2022/09/02 02:12:15;;;;;;;3.88;3.58;;;;;;;17.77;63.33;100431.16;5057676;28;20225;-71
2022/09/02 02:14:43;;;;;;;3.92;3.40;;;;;;;17.68;63.81;100435.44;5061911;28;20198;-72
2022/09/02 02:17:10;;;;;;;3.10;2.58;;;;;;;17.76;63.82;100434.88;5065120;28;20273;-71
2022/09/02 02:19:36;;;;;;;3.67;2.67;;;;;;;17.79;64.05;100434.63;5066087;28;20201;-73
2022/09/02 02:22:06;;;;;;;3.33;2.92;;;;;;;17.70;64.75;100433.47;5051593;28;20208;-72
2022/09/02 02:24:34;;;;;;;5.50;3.10;;;;;;;17.63;65.39;100434.91;5052795;28;21162;-72
2022/09/02 02:27:00;;;;;;;4.38;2.80;;;;;;;17.55;64.91;100427.31;5050430;28;20200;-71
2022/09/02 02:29:27;;;;;;;3.88;3.25;;;;;;;17.55;65.39;100438.22;5063762;28;20201;-71
2022/09/02 02:31:55;;;;;;;3.50;3.20;;;;;;;17.47;66.45;100436.03;5061548;28;20221;-74
2022/09/02 02:34:21;;;;;;;3.28;2.80;;;;;;;17.36;67.28;100435.94;5068605;28;20296;-71
2022/09/02 02:36:48;;;;;;;4.57;3.10;;;;;;;17.44;66.92;100432.69;5055903;28;20202;-72
2022/09/02 02:39:15;;;;;;;4.35;3.40;;;;;;;17.30;67.82;100437.28;5063100;28;20261;-72
2022/09/02 02:41:42;;;;;;;4.38;3.45;;;;;;;17.26;67.34;100432.19;5054622;28;20193;-71
2022/09/02 02:44:09;;;;;;;3.60;3.30;;;;;;;17.22;67.95;100427.94;5062680;28;20697;-72
2022/09/02 02:46:36;;;;;;;5.00;2.88;;;;;;;17.13;68.30;100432.19;5068624;28;20205;-72
2022/09/02 02:49:05;;;;;;;2.90;2.58;;;;;;;17.15;67.88;100432.94;5066872;28;20249;-70
2022/09/02 02:51:32;;;;;;;4.20;3.22;;;;;;;17.12;68.16;100433.19;5076344;28;20228;-71
2022/09/02 02:54:00;;;;;;;4.72;3.25;;;;;;;17.10;68.55;100437.88;5076967;28;20236;-71
2022/09/02 02:56:27;;;;;;;3.42;3.10;;;;;;;17.12;67.64;100441.34;5057577;28;20205;-72
2022/09/02 02:58:53;;;;;;;3.40;3.10;;;;;;;17.21;66.86;100437.97;5068087;28;20196;-72
2022/09/02 03:01:20;;;;;;;4.32;3.00;;;;;;;17.22;66.96;100436.97;5058510;28;20198;-73
2022/09/02 03:03:47;;;;;;;3.50;2.50;;;;;;;17.26;67.52;100433.03;5052529;28;20881;-72
2022/09/02 03:06:15;;;;;;;4.10;2.97;;;;;;;17.34;67.12;100429.75;5065319;28;20193;-72
2022/09/02 03:08:41;;;;;;;3.30;3.00;;;;;;;17.29;67.58;100432.81;5047233;28;20201;-72
2022/09/02 03:11:08;;;;;;;3.90;3.08;;;;;;;17.32;67.15;100439.00;5046880;28;20206;-72
2022/09/02 03:13:36;;;;;;;3.92;2.78;;;;;;;17.41;67.26;100427.44;5072933;28;20229;-72
2022/09/02 03:16:04;;;;;;;3.67;3.30;;;;;;;17.41;67.96;100427.44;5069939;28;20228;-71
2022/09/02 03:18:31;;;;;;;3.30;3.00;;;;;;;17.50;67.31;100429.50;5058687;28;20204;-72
2022/09/02 03:20:58;;;;;;;4.38;3.15;;;;;;;17.46;66.77;100420.69;5067767;28;20284;-70
2022/09/02 03:23:26;;;;;;;3.47;2.63;;;;;;;17.53;65.89;100418.41;5071594;28;20228;-72
2022/09/02 03:25:53;;;;;;;5.53;2.97;;;;;;;17.57;66.98;100419.03;5058075;28;20279;-71
2022/09/02 03:28:19;;;;;;;3.40;3.10;;;;;;;17.61;67.02;100415.09;5057019;28;20209;-70
2022/09/02 03:30:46;;;;;;;2.85;2.65;;;;;;;17.60;66.02;100414.22;5052833;28;20205;-71
2022/09/02 03:33:13;;;;;;;4.95;3.35;;;;;;;17.63;65.52;100421.28;5050604;28;20229;-70
2022/09/02 03:35:41;;;;;;;6.05;3.35;;;;;;;17.67;66.22;100426.41;5056187;28;20205;-72
2022/09/02 03:38:09;;;;;;;3.22;2.92;;;;;;;17.61;65.76;100417.81;5053565;28;20664;-72
2022/09/02 03:40:38;;;;;;;4.47;3.10;;;;;;;17.59;66.91;100420.66;5062055;28;20655;-73
2022/09/02 03:43:07;;;;;;;3.28;2.97;;;;;;;17.52;66.64;100422.09;5057113;28;20255;-72
2022/09/02 03:45:34;;;;;;;3.70;3.08;;;;;;;17.58;66.93;100415.31;5069222;28;20362;-71
2022/09/02 03:48:01;;;;;;;4.47;2.70;;;;;;;17.38;67.66;100414.06;5062862;28;20211;-72
2022/09/02 03:50:31;;;;;;;4.55;2.85;;;;;;;17.31;68.41;100413.66;5068270;28;20207;-73
2022/09/02 03:52:58;;;;;;;4.32;3.25;;;;;;;17.24;68.68;100413.22;5062653;28;20231;-72
2022/09/02 03:55:25;;;;;;;4.10;3.15;;;;;;;17.18;70.66;100416.41;5054345;28;20213;-72
2022/09/02 03:57:53;;;;;;;3.90;3.45;;;;;;;17.14;69.19;100419.44;5063240;28;20238;-72
2022/09/02 04:00:23;;;;;;;3.47;3.10;;;;;;;17.13;70.07;100418.59;5064413;28;20659;-72
2022/09/02 04:02:50;;;;;;;6.97;3.25;;;;;;;17.11;69.80;100417.81;5060990;28;20220;-75
2022/09/02 04:05:16;;;;;;;4.57;3.45;;;;;;;17.12;69.30;100410.53;5061500;28;20211;-76
2022/09/02 04:07:44;;;;;;;3.53;3.13;;;;;;;17.11;69.47;100422.41;5049493;28;20291;-74
2022/09/02 04:10:11;;;;;;;4.07;3.67;;;;;;;17.08;68.77;100418.91;5059734;28;20607;-75
2022/09/02 04:12:39;;;;;;;5.70;3.40;;;;;;;16.96;72.21;100417.09;5065157;28;20308;-76
2022/09/02 04:15:09;;;;;;;6.25;3.42;;;;;;;16.78;73.84;100404.75;5060569;28;20196;-74
2022/09/02 04:17:37;;;;;;;3.30;3.00;;;;;;;16.80;74.89;100420.03;5060533;28;20291;-74
2022/09/02 04:20:04;;;;;;;4.72;3.80;;;;;;;16.59;76.19;100418.78;5065861;28;20203;-75
2022/09/02 04:22:31;;;;;;;3.70;3.35;;;;;;;16.54;76.83;100413.69;5062048;28;20300;-75
2022/09/02 04:24:58;;;;;;;3.90;3.42;;;;;;;16.65;77.26;100416.50;5056909;28;20203;-75
2022/09/02 04:27:24;;;;;;;7.20;3.03;;;;;;;16.55;76.74;100414.53;5061921;28;20658;-75
2022/09/02 04:29:51;;;;;;;4.05;3.63;;;;;;;16.64;76.40;100419.34;5061357;28;20201;-74
2022/09/02 04:32:20;;;;;;;3.30;3.00;;;;;;;16.64;78.21;100422.06;5063166;28;20223;-74
2022/09/02 04:34:47;;;;;;;3.63;3.30;;;;;;;16.72;78.52;100425.13;5055032;28;20202;-76
2022/09/02 04:37:14;;;;;;;4.40;3.60;;;;;;;16.68;79.01;100412.69;5048512;28;20200;-75
2022/09/02 04:39:40;;;;;;;4.55;3.78;;;;;;;16.73;79.35;100417.81;5061289;28;20207;-73
2022/09/02 04:42:07;;;;;;;6.75;3.45;;;;;;;16.76;79.36;100423.06;5067943;28;20719;-74
2022/09/02 04:44:33;;;;;;;5.63;3.30;;;;;;;16.74;78.63;100422.28;5065017;28;20207;-75
2022/09/02 04:47:01;;;;;;;3.90;3.00;;;;;;;16.82;76.68;100418.09;5068114;28;20291;-76
2022/09/02 04:49:30;;;;;;;8.23;3.88;;;;;;;16.99;75.34;100418.72;5074319;28;20225;-75
2022/09/02 04:51:57;;;;;;;12.43;3.85;;;;;;;16.75;74.54;100422.16;5033579;28;20220;-75
2022/09/02 04:54:24;;;;;;;5.82;3.20;;;;;;;16.85;73.19;100423.31;5033254;28;20208;-75
2022/09/02 04:56:50;;;;;;;5.10;3.70;;;;;;;17.04;72.37;100422.84;5041934;28;20216;-76
2022/09/02 04:59:19;;;;;;;10.88;3.38;;;;;;;17.15;74.02;100419.34;5032428;28;20202;-74
2022/09/02 05:01:46;;;;;;;8.05;3.90;;;;;;;17.05;75.73;100419.16;5033400;28;20686;-74
2022/09/02 05:04:12;;;;;;;11.23;4.75;;;;;;;17.09;75.36;100422.50;5055899;28;20560;-74
2022/09/02 05:06:40;;;;;;;5.80;3.30;;;;;;;17.16;75.04;100420.22;5057358;28;20284;-75
2022/09/02 05:09:08;;;;;;;9.90;4.00;;;;;;;17.01;74.79;100422.22;5076544;28;20203;-75
2022/09/02 05:11:36;;;;;;;4.13;3.75;;;;;;;17.17;73.34;100425.56;5056802;28;20201;-75
2022/09/02 05:14:06;;;;;;;6.70;3.75;;;;;;;17.14;73.68;100422.16;5056364;28;20344;-75
2022/09/02 05:16:36;;;;;;;5.22;3.63;;;;;;;17.13;72.52;100426.75;5064187;28;20568;-75
2022/09/02 05:19:04;;;;;;;6.50;4.70;;;;;;;17.21;72.17;100424.34;5064847;28;20645;-76
2022/09/02 05:21:31;;;;;;;7.03;4.53;;;;;;;17.39;71.34;100432.13;5078451;28;20649;-77
2022/09/02 05:23:59;;;;;;;5.20;4.00;;;;;;;17.42;71.50;100431.94;5066250;28;20216;-75
2022/09/02 05:26:26;;;;;;;6.47;3.80;;;;;;;17.39;71.16;100432.13;5062063;28;20287;-75
2022/09/02 05:28:53;;;;;;;5.38;4.07;;;;;;;17.52;70.31;100430.25;5076437;28;20286;-76
2022/09/02 05:31:21;;;;;;;6.30;3.78;;;;;;;17.61;69.74;100423.25;5067038;28;20220;-74
2022/09/02 05:33:48;;;;;;;8.75;5.53;;;;;;;17.49;70.71;100425.91;5054495;28;20626;-75
2022/09/02 05:36:17;;;;;;;11.30;5.30;;;;;;;17.67;69.58;100422.81;5065592;28;20265;-75
2022/09/02 05:38:45;;;;;;;10.68;4.38;;;;;;;17.80;68.85;100420.91;5059657;28;20228;-74
2022/09/02 05:41:17;;;;;;;7.68;3.95;;;;;;;17.82;67.85;100418.06;5074357;28;20205;-75
2022/09/02 05:43:45;;;;;;;6.57;3.55;;;;;;;17.98;64.71;100429.59;5066739;28;20280;-74
2022/09/02 05:46:16;;;;;;;5.05;3.47;;;;;;;18.15;64.40;100424.69;5058399;28;20228;-75
2022/09/02 05:51:30;;;;;;;6.45;3.25;;;;;;;18.41;61.48;100433.59;5073546;28;20243;-74
2022/09/02 05:54:01;;;;;;;5.82;3.75;;;;;;;18.55;60.52;100423.34;5063682;28;20225;-76
2022/09/02 05:56:29;;;;;;;5.55;3.70;;;;;;;18.70;59.89;100428.56;5069365;28;20208;-74
2022/09/02 05:58:57;;;;;;;3.80;3.00;;;;;;;18.79;59.49;100429.72;5077134;28;20295;-77
2022/09/02 06:01:24;;;;;;;3.17;2.88;;;;;;;18.79;59.04;100430.63;5063539;28;20232;-75
2022/09/02 06:03:51;;;;;;;8.50;3.33;;;;;;;18.88;58.95;100429.00;5093691;23;20294;-70
2022/09/02 06:06:18;;;;;;;4.65;3.67;;;;;;;18.94;58.15;100429.38;5073136;28;20197;-68
2022/09/02 06:08:45;;;;;;;5.82;2.90;;;;;;;19.09;58.17;100429.16;5077147;28;20193;-70
2022/09/02 06:11:12;;;;;;;4.70;2.75;;;;;;;19.28;57.83;100425.78;5075123;28;20287;-69
2022/09/02 06:13:42;;;;;;;4.90;2.87;;;;;;;19.28;57.40;100425.78;5076323;28;20707;-70
2022/09/02 06:16:12;;;;;;;4.53;3.10;;;;;;;19.46;56.52;100417.94;5075842;28;20435;-69
2022/09/02 06:18:39;;;;;;;5.60;3.40;;;;;;;19.46;56.44;100434.34;5075041;28;20447;-70
2022/09/02 06:21:06;;;;;;;5.17;2.97;;;;;;;19.46;55.97;100426.16;5074220;28;20465;-69
2022/09/02 06:23:37;;;;;;;10.60;3.83;;;;;;;19.35;55.49;100427.88;5073392;28;20498;-70
2022/09/02 06:26:04;;;;;;;3.23;2.93;;;;;;;19.47;55.92;100430.59;5073945;28;20454;-70
2022/09/02 06:28:31;;;;;;;4.40;2.80;;;;;;;19.72;55.69;100430.34;5075798;28;20457;-70
2022/09/02 06:30:59;;;;;;;11.47;2.60;;;;;;;20.03;54.20;100430.50;5073638;28;20954;-70
2022/09/02 06:33:26;;;;;;;4.47;2.93;;;;;;;20.14;54.07;100421.38;5074532;28;20482;-67
2022/09/02 06:35:52;;;;;;;8.97;3.50;;;;;;;20.19;53.78;100421.84;5074595;28;20469;-70
2022/09/02 06:38:19;;;;;;;3.60;3.30;;;;;;;20.41;53.38;100440.91;5075317;28;20676;-68
2022/09/02 06:40:48;;;;;;;3.47;2.97;;;;;;;20.55;52.21;100426.03;5075191;28;20435;-68
2022/09/02 06:43:14;;;;;;;3.50;3.20;;;;;;;20.87;51.76;100432.44;5075864;28;20870;-69
2022/09/02 06:45:41;;;;;;;6.80;3.27;;;;;;;20.79;51.05;100439.47;5073930;28;20459;-69
2022/09/02 06:48:10;;;;;;;3.50;3.20;;;;;;;20.70;51.04;100431.22;5069941;28;20465;-71
2022/09/02 06:50:39;;;;;;;2.93;2.63;;;;;;;20.78;51.02;100445.06;5071845;28;20455;-69
2022/09/02 06:53:07;;;;;;;4.30;2.70;;;;;;;20.71;51.02;100433.78;5072502;28;20485;-70
2022/09/02 06:55:35;;;;;;;3.23;2.33;;;;;;;20.92;50.85;100441.16;5074377;28;20482;-70
2022/09/02 06:58:02;;;;;;;3.00;2.70;;;;;;;21.07;50.57;100436.16;5067802;28;20490;-69
2022/09/02 07:00:30;;;;;;;3.40;2.57;;;;;;;21.10;50.59;100433.16;5074718;28;20542;-71
2022/09/02 07:05:39;;;;;;;3.43;2.80;;;;;;;21.41;49.47;100432.19;5053892;28;20467;-69
2022/09/02 07:08:05;;;;;;;2.60;2.03;;;;;;;21.79;48.90;100424.19;5067974;28;20553;-68
2022/09/02 07:10:32;;;;;;;5.50;2.97;;;;;;;21.73;48.57;100420.16;5083961;28;20419;-71
2022/09/02 07:12:59;;;;;;;2.97;2.67;;;;;;;21.82;48.30;100415.66;5074313;28;20492;-70
2022/09/02 07:15:26;;;;;;;7.40;4.13;;;;;;;22.18;47.79;100424.22;5075949;28;20451;-70
2022/09/02 07:17:54;;;;;;;3.53;2.40;;;;;;;22.41;46.96;100416.59;5073547;28;20443;-69
2022/09/02 07:20:20;;;;;;;4.63;2.70;;;;;;;22.95;45.89;100415.06;5056613;28;20972;-70
2022/09/02 07:22:49;;;;;;;5.13;2.93;;;;;;;23.46;44.50;100421.94;5073929;28;20518;-69
2022/09/02 07:25:17;;;;;;;6.30;2.70;;;;;;;23.88;43.42;100415.97;5065854;28;20448;-70
2022/09/02 07:27:43;;;;;;;4.90;3.70;;;;;;;23.78;43.21;100419.78;5058501;28;20565;-71
2022/09/02 07:30:12;;;;;;;5.17;4.30;;;;;;;24.30;42.42;100422.72;5055060;28;20451;-70
2022/09/02 07:32:39;;;;;;;3.00;2.67;;;;;;;24.48;42.05;100418.09;5071926;28;20904;-69
2022/09/02 07:35:07;;;;;;;3.30;2.63;;;;;;;25.17;40.49;100418.22;5073002;28;20540;-71
2022/09/02 07:37:35;;;;;;;2.80;2.40;;;;;;;25.20;40.21;100417.06;5072519;28;20839;-70
2022/09/02 07:40:05;;;;;;;5.33;2.13;;;;;;;25.61;39.54;100425.50;5072016;28;20462;-70
2022/09/02 07:42:31;;;;;;;3.87;2.37;;;;;;;25.88;38.76;100421.66;5071509;28;20531;-71
2022/09/02 07:44:58;;;;;;;4.30;2.13;;;;;;;26.42;38.28;100419.31;5072829;28;21157;-70
2022/09/02 07:47:24;;;;;;;3.50;2.00;;;;;;;26.92;37.03;100420.19;5073253;28;20454;-70
2022/09/02 07:49:51;;;;;;;2.60;2.17;;;;;;;27.44;36.07;100419.72;5054151;28;20458;-70
2022/09/02 07:52:18;;;;;;;2.23;2.03;;;;;;;27.33;35.68;100418.19;5074828;28;20817;-69
2022/09/02 07:54:44;;;;;;;2.60;2.00;;;;;;;26.78;36.82;100421.75;5069554;28;20481;-69
2022/09/02 07:57:12;;;;;;;3.03;2.13;;;;;;;26.44;37.10;100416.41;5075199;28;20765;-70
2022/09/02 07:59:39;;;;;;;4.03;2.03;;;;;;;27.33;35.84;100415.44;5070031;28;20457;-72
2022/09/02 08:02:06;;;;;;;7.77;2.10;;;;;;;27.75;35.54;100407.81;5065515;28;20455;-69
2022/09/02 08:04:32;;;;;;;4.13;2.07;;;;;;;28.31;34.42;100413.16;5073072;28;20620;-71
2022/09/02 08:06:59;;;;;;;5.43;2.20;;;;;;;28.46;34.08;100406.63;5073286;28;20443;-70
2022/09/02 08:09:26;;;;;;;8.10;2.60;;;;;;;28.02;34.60;100409.25;5073034;28;20523;-70
2022/09/02 08:11:53;;;;;;;4.30;2.70;;;;;;;27.83;34.73;100403.06;5073445;28;20446;-70
2022/09/02 08:14:27;;;;;;;1.80;1.60;;;;;;;28.45;33.89;100399.38;5072098;28;20486;-70
2022/09/02 08:16:55;;;;;;;3.30;2.13;;;;;;;28.67;33.84;100410.63;5071651;28;20789;-71
2022/09/02 08:19:22;;;;;;;3.40;1.70;;;;;;;28.12;34.21;100395.16;5069225;28;20459;-71
2022/09/02 08:21:49;;;;;;;3.20;2.27;;;;;;;27.77;34.76;100402.94;5073698;28;20936;-70
2022/09/02 08:24:15;;;;;;;5.60;2.10;;;;;;;27.96;34.54;100408.06;5073535;28;20465;-70
2022/09/02 08:26:42;;;;;;;6.83;2.03;;;;;;;27.81;34.75;100409.84;5071553;28;20457;-70
2022/09/02 08:29:09;;;;;;;2.17;1.83;;;;;;;27.65;35.23;100402.50;5071622;28;20459;-71
2022/09/02 08:31:38;;;;;;;4.47;2.20;;;;;;;28.05;34.27;100406.97;5064777;28;20449;-70
2022/09/02 08:34:05;;;;;;;2.50;1.60;;;;;;;27.64;34.70;100409.09;5072776;28;20484;-69
2022/09/02 08:36:33;;;;;;;4.57;1.80;;;;;;;28.32;34.11;100413.00;5062446;28;20472;-70
2022/09/02 08:39:01;;;;;;;4.53;2.00;;;;;;;27.91;34.43;100404.13;5073147;28;20542;-71
2022/09/02 08:41:36;;;;;;;2.80;2.13;;;;;;;29.10;32.67;100399.84;5077421;28;20461;-70
2022/09/02 08:44:04;;;;;;;3.10;1.63;;;;;;;30.02;31.61;100398.50;5074600;28;20479;-70
2022/09/02 08:46:34;;;;;;;2.53;1.83;;;;;;;29.93;31.38;100401.38;5079234;28;20439;-69
2022/09/02 08:49:07;;;;;;;2.37;1.67;;;;;;;31.03;29.97;100399.22;5080499;28;20960;-70
2022/09/02 08:51:37;;;;;;;2.80;2.13;;;;;;;31.74;29.18;100406.47;5074178;28;20450;-69
2022/09/02 08:54:07;;;;;;;2.53;1.90;;;;;;;31.15;29.87;100393.97;5078586;28;20490;-71
2022/09/02 08:56:34;;;;;;;4.50;1.80;;;;;;;30.61;30.27;100397.38;5074621;28;20957;-69
2022/09/02 08:59:02;;;;;;;3.60;1.80;;;;;;;31.40;29.08;100393.44;5078331;28;20448;-70
2022/09/02 09:01:40;;;;;;;1.80;1.70;;;;;;;30.25;30.12;100398.28;5079729;28;20462;-70
2022/09/02 09:04:18;;;;;;;2.23;1.53;;;;;;;29.93;30.70;100393.06;5088834;28;20470;-72
2022/09/02 09:07:05;;;;;;;4.37;1.50;;;;;;;30.32;30.49;100377.03;5101529;28;20450;-69
2022/09/02 09:09:45;;;;;;;4.10;2.27;;;;;;;31.44;29.39;100375.31;5099622;28;20426;-68
2022/09/02 09:12:17;;;;;;;2.60;1.60;;;;;;;33.06;27.49;100388.28;5090403;28;20399;-69
2022/09/02 09:14:49;;;;;;;3.37;1.20;;;;;;;34.42;25.77;100378.00;5101143;28;20567;-69
2022/09/02 09:17:25;;;;;;;2.03;1.50;;;;;;;34.85;25.26;100374.41;5101981;28;20458;-70
2022/09/02 09:19:57;;;;;;;4.70;1.77;;;;;;;34.47;25.41;100378.16;5086643;28;20426;-71
2022/09/02 09:22:36;;;;;;;4.50;1.90;;;;;;;34.34;25.60;100373.53;5081787;28;20846;-71
2022/09/02 09:25:07;;;;;;;2.30;1.47;;;;;;;33.18;26.04;100375.34;5078874;28;20522;-70
2022/09/02 09:27:33;;;;;;;2.33;1.37;;;;;;;32.76;26.38;100377.53;5063621;28;20435;-71
2022/09/02 09:30:01;;;;;;;3.27;1.50;;;;;;;32.02;27.26;100378.56;5062784;28;20641;-71
2022/09/02 09:32:32;;;;;;;3.97;1.67;;;;;;;31.64;27.80;100369.84;5062012;28;20467;-71
2022/09/02 09:35:02;;;;;;;2.93;1.33;;;;;;;31.45;27.75;100368.66;5061477;28;20533;-69
2022/09/02 09:37:31;;;;;;;3.37;1.40;;;;;;;32.66;26.52;100356.75;5079921;28;20434;-71
2022/09/02 09:39:57;;;;;;;5.20;1.73;;;;;;;33.48;26.21;100362.81;5078238;28;20545;-71
2022/09/02 09:42:32;;;;;;;1.50;1.30;;;;;;;33.80;25.24;100353.44;5079759;28;20613;-70
2022/09/02 09:44:59;;;;;;;1.63;1.40;;;;;;;34.87;23.88;100353.53;5080360;28;20571;-70
2022/09/02 09:47:26;;;;;;;1.73;1.20;;;;;;;35.59;22.96;100354.84;5079174;28;20439;-72
2022/09/02 09:50:10;;;;;;;2.07;1.23;;;;;;;35.46;22.76;100353.09;5028645;28;20447;-71
2022/09/02 09:52:38;;;;;;;3.37;1.30;;;;;;;35.66;22.81;100356.53;5071909;28;20502;-71
2022/09/02 09:55:16;;;;;;;1.73;1.07;;;;;;;35.02;23.46;100341.94;5088601;28;20478;-70
2022/09/02 09:57:45;;;;;;;2.10;1.03;;;;;;;36.79;21.95;100339.03;5068564;28;20431;-69
2022/09/02 10:00:20;;;;;;;1.87;1.33;;;;;;;37.03;21.35;100346.34;5074085;28;20439;-72
2022/09/02 10:02:49;;;;;;;3.83;1.03;;;;;;;35.24;22.37;100342.38;5073112;28;20482;-70
2022/09/02 10:05:30;;;;;;;3.30;1.07;;;;;;;36.55;21.74;100332.53;5075622;28;20454;-71
2022/09/02 10:08:01;;;;;;;5.10;2.90;;;;;;;33.90;22.71;100324.16;5082538;28;20450;-69
2022/09/02 10:10:29;;;;;;;2.53;1.87;;;;;;;35.50;21.82;100331.91;5093061;28;20439;-68
2022/09/02 10:13:00;;;;;;;1.80;1.20;;;;;;;35.76;21.49;100341.94;5093655;28;20554;-68
2022/09/02 10:15:38;;;;;;;1.67;1.30;;;;;;;33.05;23.11;100329.88;5092082;28;20471;-67
2022/09/02 10:18:20;;;;;;;1.80;1.30;;;;;;;33.00;22.83;100331.38;5084949;28;20435;-71
2022/09/02 10:20:56;;;;;;;4.43;1.10;;;;;;;32.83;23.24;100338.47;5077702;28;20457;-71
2022/09/02 10:23:36;;;;;;;5.50;1.30;;;;;;;32.28;24.72;100326.72;5074795;28;20474;-70
2022/09/02 10:26:12;;;;;;;2.30;1.40;;;;;;;34.42;23.17;100319.28;5071140;28;21042;-72
2022/09/02 10:29:05;;;;;;;2.30;1.23;;;;;;;35.57;22.45;100315.03;5077520;28;20454;-71
2022/09/02 10:31:40;;;;;;;2.30;1.13;;;;;;;35.60;21.81;100321.03;5075400;28;20462;-70
2022/09/02 10:34:19;;;;;;;5.63;1.47;;;;;;;35.44;22.47;100318.88;5075973;28;20482;-71
2022/09/02 10:37:05;;;;;;;1.97;1.20;;;;;;;36.51;21.45;100319.00;5072204;28;20459;-70
2022/09/02 10:39:48;;;;;;;2.83;1.50;;;;;;;35.98;22.01;100307.78;5074852;28;20457;-72
2022/09/02 10:42:21;;;;;;;1.47;1.37;;;;;;;37.38;20.50;100316.50;5074097;28;20959;-70
2022/09/02 10:44:59;;;;;;;2.47;1.40;;;;;;;34.66;22.57;100301.66;5069296;28;21100;-70
2022/09/02 10:47:34;;;;;;;3.20;1.30;;;;;;;36.05;21.23;100302.94;5068409;28;20456;-70
2022/09/02 10:50:11;;;;;;;1.97;1.23;;;;;;;37.31;20.51;100302.59;5074105;28;20435;-72
2022/09/02 10:52:51;;;;;;;1.83;1.00;;;;;;;38.72;18.89;100309.47;5074507;28;20467;-70
2022/09/02 10:55:30;;;;;;;1.93;1.07;;;;;;;39.12;18.63;100297.97;5061878;28;20477;-72
2022/09/02 10:58:03;;;;;;;2.47;1.30;;;;;;;36.85;20.46;100301.59;5054976;28;20439;-73
2022/09/02 11:00:32;;;;;;;2.30;1.47;;;;;;;33.72;22.26;100294.22;5055142;28;20438;-70
2022/09/02 11:03:07;;;;;;;1.67;1.20;;;;;;;34.43;22.05;100302.28;5072955;28;20466;-70
2022/09/02 11:05:41;;;;;;;1.80;1.10;;;;;;;34.70;21.78;100296.47;5061991;28;20455;-70
2022/09/02 11:08:12;;;;;;;2.47;1.00;;;;;;;33.80;22.39;100285.56;5058114;28;20428;-71
2022/09/02 11:10:56;;;;;;;1.40;1.20;;;;;;;32.68;23.51;100298.84;5059267;28;20919;-70
2022/09/02 11:13:30;;;;;;;2.37;1.20;;;;;;;34.14;22.71;100280.59;5067268;28;20838;-71
2022/09/02 11:16:03;;;;;;;1.60;1.13;;;;;;;32.77;23.86;100275.25;5071440;28;20474;-69
2022/09/02 11:18:35;;;;;;;3.97;1.50;;;;;;;30.27;26.20;100268.44;5073955;28;20553;-70
2022/09/02 11:21:08;;;;;;;1.60;1.40;;;;;;;30.25;26.39;100262.19;5075454;28;20458;-71
2022/09/02 11:23:42;;;;;;;3.13;1.40;;;;;;;29.69;26.96;100268.53;5062657;28;20512;-70
2022/09/02 11:26:17;;;;;;;1.93;1.63;;;;;;;28.37;28.71;100265.66;5070462;28;20507;-73
2022/09/02 11:28:52;;;;;;;4.73;1.70;;;;;;;27.41;30.11;100256.94;5070131;28;20427;-69
2022/09/02 11:31:24;;;;;;;2.53;1.80;;;;;;;28.79;28.73;100256.75;5077683;28;20441;-70
2022/09/02 11:33:56;;;;;;;2.10;1.77;;;;;;;30.76;26.57;100262.81;5075585;28;20884;-69
2022/09/02 11:36:24;;;;;;;3.63;1.80;;;;;;;29.71;27.21;100253.41;5075110;28;21109;-72
2022/09/02 11:38:54;;;;;;;3.20;1.40;;;;;;;28.55;28.62;100254.25;5074520;28;20443;-70